Basin, Montana
Current Conditions -  °F | °C
As of 11:53 PM on Wednesday 26 Nov 2014 (Local Time) from KBTM Reporting Station
Clear Clear  
Wind Chill: 40°   Ceiling: Unl
Heat Index: 43°   Visibility: 10mi
Dew Point: 25°   Wind: 5mph
Humidity: 49%   Direction: 280°W
Pressure: 30.11"   Gusts: NA
Location:  46.27°N, 112.26°W
Report Text: KBTM 270653Z AUTO 28004KT 10SM CLR 06/M04 A3011 RMK AO2 SLP192 T00611039 400671028
Loading
Personal Weather Stations






























Interactive Weather Map New forecast layout! Learn more

10-Day Weather Forecast

Advertisements
Track Severe Weather on mobile